createdAt,value
2022-10-08T00:00:25.831Z,11.48
2022-10-08T00:02:58.232Z,8.77
2022-10-08T00:05:28.199Z,7.20
2022-10-08T00:07:57.951Z,7.10
2022-10-08T00:10:27.742Z,7.78
2022-10-08T00:12:57.586Z,8.35
2022-10-08T00:15:27.661Z,7.88
2022-10-08T00:17:57.373Z,12.60
2022-10-08T00:20:27.103Z,7.90
2022-10-08T00:22:56.752Z,8.15
2022-10-08T00:25:26.758Z,9.77
2022-10-08T00:27:56.477Z,11.30
2022-10-08T00:30:26.341Z,8.85
2022-10-08T00:32:59.920Z,11.05
2022-10-08T00:35:29.883Z,8.75
2022-10-08T00:38:00.322Z,12.75
2022-10-08T00:40:30.056Z,9.45
2022-10-08T00:43:02.530Z,13.05
2022-10-08T00:45:32.472Z,7.18
2022-10-08T00:48:02.381Z,7.50
2022-10-08T00:50:39.272Z,5.88
2022-10-08T00:53:12.032Z,10.10
2022-10-08T00:55:44.128Z,3.92
2022-10-08T00:58:20.389Z,10.45
2022-10-08T01:00:50.284Z,7.53
2022-10-08T01:03:20.334Z,5.70
2022-10-08T01:05:56.711Z,4.57
2022-10-08T01:08:29.633Z,5.90
2022-10-08T01:11:05.832Z,4.80
2022-10-08T01:13:45.195Z,5.25
2022-10-08T01:16:25.588Z,4.47
2022-10-08T01:18:57.841Z,6.30
2022-10-08T01:21:38.666Z,7.20
2022-10-08T01:24:22.168Z,6.88
2022-10-08T01:26:59.806Z,7.97
2022-10-08T01:29:33.013Z,8.55
2022-10-08T01:32:07.548Z,5.13
2022-10-08T01:34:43.394Z,8.10
2022-10-08T01:37:18.001Z,3.72
2022-10-08T01:39:48.044Z,6.60
2022-10-08T01:42:17.753Z,12.68
2022-10-08T01:44:59.877Z,4.10
2022-10-08T01:47:30.460Z,16.13
2022-10-08T01:50:08.734Z,6.60
2022-10-08T01:53:01.655Z,4.40
2022-10-08T01:55:41.752Z,11.05
2022-10-08T01:58:15.431Z,5.50
2022-10-08T02:00:45.714Z,5.03
2022-10-08T02:03:15.815Z,7.72
2022-10-08T02:05:47.505Z,5.13
2022-10-08T02:08:17.310Z,8.82
2022-10-08T02:10:47.312Z,5.60
2022-10-08T02:13:17.337Z,7.78
2022-10-08T02:15:56.988Z,7.15
2022-10-08T02:18:32.564Z,7.35
2022-10-08T02:21:02.518Z,4.90
2022-10-08T02:23:42.067Z,6.25
2022-10-08T02:26:12.743Z,5.00
2022-10-08T02:29:01.474Z,5.57
2022-10-08T02:31:34.736Z,3.33
2022-10-08T02:34:07.321Z,5.10
2022-10-08T02:36:38.253Z,7.82
2022-10-08T02:39:08.259Z,7.22
2022-10-08T02:41:41.598Z,7.80
2022-10-08T02:44:12.735Z,3.45
2022-10-08T02:46:43.232Z,2.45
2022-10-08T02:49:17.413Z,4.30
2022-10-08T02:51:53.392Z,6.75
2022-10-08T02:54:23.782Z,4.25
2022-10-08T02:57:12.461Z,5.10
2022-10-08T02:59:42.543Z,5.15
2022-10-08T03:02:12.500Z,4.95
2022-10-08T03:04:53.942Z,5.97
2022-10-08T03:07:28.344Z,6.07
2022-10-08T03:09:58.163Z,3.67
2022-10-08T03:12:28.593Z,5.57
2022-10-08T03:14:58.464Z,5.78
2022-10-08T03:17:28.958Z,5.13
2022-10-08T03:19:59.221Z,6.75
2022-10-08T03:22:30.058Z,5.88
2022-10-08T03:24:59.741Z,6.43
2022-10-08T03:27:29.560Z,7.53
2022-10-08T03:29:59.481Z,3.60
2022-10-08T03:32:29.543Z,5.07
2022-10-08T03:34:59.275Z,4.07
2022-10-08T03:37:29.063Z,3.38
2022-10-08T03:39:58.901Z,5.30
2022-10-08T03:42:28.715Z,5.90
2022-10-08T03:44:58.406Z,4.85
2022-10-08T03:47:28.299Z,4.85
2022-10-08T03:49:58.105Z,3.72
2022-10-08T03:52:28.055Z,4.25
2022-10-08T03:54:57.927Z,6.95
2022-10-08T03:57:27.738Z,2.28
2022-10-08T03:59:57.637Z,4.85
2022-10-08T04:02:28.462Z,4.28
2022-10-08T04:04:58.184Z,2.92
2022-10-08T04:07:27.894Z,6.63
2022-10-08T04:09:57.676Z,5.25
2022-10-08T04:12:27.426Z,3.90
2022-10-08T04:14:57.278Z,3.33
2022-10-08T04:17:27.030Z,3.97
2022-10-08T04:19:58.728Z,13.93
2022-10-08T04:22:28.676Z,4.30
2022-10-08T04:24:58.594Z,6.53
2022-10-08T04:27:28.522Z,9.20
2022-10-08T04:29:58.367Z,6.85
2022-10-08T04:32:28.701Z,6.13
2022-10-08T04:34:58.354Z,2.85
2022-10-08T04:37:28.085Z,2.65
2022-10-08T04:39:57.855Z,4.38
2022-10-08T04:42:27.662Z,6.78
2022-10-08T04:44:57.374Z,6.30
2022-10-08T04:47:28.099Z,4.28
2022-10-08T04:49:57.942Z,6.07
2022-10-08T04:52:27.871Z,8.30
2022-10-08T04:54:57.872Z,5.43
2022-10-08T04:57:27.546Z,9.18
2022-10-08T05:00:17.066Z,6.20
2022-10-08T05:02:47.350Z,7.75
2022-10-08T05:05:17.826Z,12.65
2022-10-08T05:07:48.147Z,7.93
2022-10-08T05:10:18.271Z,3.13
2022-10-08T05:12:51.213Z,5.72
2022-10-08T05:15:21.654Z,2.35
2022-10-08T05:17:54.854Z,7.82
2022-10-08T05:20:24.744Z,6.28
2022-10-08T05:22:54.789Z,5.95
2022-10-08T05:25:25.302Z,7.18
2022-10-08T05:27:55.228Z,7.55
2022-10-08T05:30:25.501Z,2.67
2022-10-08T05:32:57.981Z,4.22
2022-10-08T05:35:28.760Z,2.75
2022-10-08T05:37:59.452Z,2.55
2022-10-08T05:40:31.133Z,3.28
2022-10-08T05:43:01.325Z,2.70
2022-10-08T05:45:31.553Z,2.88
2022-10-08T05:48:01.922Z,3.30
2022-10-08T05:50:32.274Z,2.28
2022-10-08T05:53:04.522Z,2.95
2022-10-08T05:55:37.612Z,4.10
2022-10-08T05:58:07.597Z,2.25
2022-10-08T06:00:37.751Z,3.70
2022-10-08T06:03:08.057Z,2.80
2022-10-08T06:05:38.629Z,5.65
2022-10-08T06:08:08.591Z,6.25
2022-10-08T06:10:38.854Z,5.38
2022-10-08T06:13:09.000Z,3.15
2022-10-08T06:15:38.941Z,5.47
2022-10-08T06:18:08.877Z,6.95
2022-10-08T06:20:42.164Z,10.93
2022-10-08T06:23:12.025Z,10.73
2022-10-08T06:25:42.061Z,29.67
2022-10-08T06:28:12.427Z,8.82
2022-10-08T06:30:46.384Z,3.05
2022-10-08T06:33:18.539Z,3.92
2022-10-08T06:35:49.515Z,5.60
2022-10-08T06:38:20.145Z,3.60
2022-10-08T06:40:50.296Z,3.67
2022-10-08T06:43:24.330Z,5.38
2022-10-08T06:45:58.305Z,2.13
2022-10-08T06:48:28.583Z,5.50
2022-10-08T06:51:08.586Z,3.65
2022-10-08T06:53:38.563Z,3.90
2022-10-08T06:56:09.101Z,3.50
2022-10-08T06:58:39.188Z,6.28
2022-10-08T07:01:10.085Z,5.65
2022-10-08T07:03:39.863Z,2.80
2022-10-08T07:06:10.560Z,2.58
2022-10-08T07:08:40.216Z,5.88
2022-10-08T07:11:10.661Z,7.65
2022-10-08T07:13:40.760Z,4.25
2022-10-08T07:16:20.795Z,5.00
2022-10-08T07:18:54.356Z,4.45
2022-10-08T07:21:24.412Z,4.45
2022-10-08T07:23:54.497Z,3.33
2022-10-08T07:26:25.342Z,2.75
2022-10-08T07:28:56.354Z,7.18
2022-10-08T07:31:29.715Z,7.65
2022-10-08T07:34:00.730Z,6.57
2022-10-08T07:36:30.971Z,5.25
2022-10-08T07:39:05.855Z,3.70
2022-10-08T07:41:35.675Z,3.28
2022-10-08T07:44:05.894Z,6.05
2022-10-08T07:46:36.287Z,5.03
2022-10-08T07:49:06.551Z,4.00
2022-10-08T07:51:36.854Z,5.05
2022-10-08T07:54:07.365Z,4.80
2022-10-08T07:56:37.461Z,3.67
2022-10-08T07:59:07.623Z,4.45
2022-10-08T08:01:37.501Z,4.03
2022-10-08T08:04:10.706Z,3.35
2022-10-08T08:06:44.791Z,3.35
2022-10-08T08:09:15.983Z,4.15
2022-10-08T08:11:45.940Z,3.15
2022-10-08T08:14:15.903Z,3.03
2022-10-08T08:16:45.991Z,2.97
2022-10-08T08:19:16.176Z,4.07
2022-10-08T08:21:46.046Z,2.67
2022-10-08T08:24:16.956Z,2.22
2022-10-08T08:26:47.142Z,4.85
2022-10-08T08:29:17.968Z,3.72
2022-10-08T08:37:54.893Z,5.70
2022-10-08T08:40:24.624Z,4.13
2022-10-08T08:42:56.388Z,5.20
2022-10-08T08:45:46.797Z,5.68
2022-10-08T08:48:21.438Z,7.75
2022-10-08T08:50:52.910Z,8.63
2022-10-08T08:53:22.620Z,6.75
2022-10-08T08:55:53.660Z,43.50
2022-10-08T08:58:41.676Z,11.50
2022-10-08T09:01:12.125Z,13.32
2022-10-08T09:03:46.142Z,6.93
2022-10-08T09:06:22.776Z,8.05
2022-10-08T09:08:59.397Z,6.57
2022-10-08T09:11:32.759Z,8.95
2022-10-08T09:14:02.605Z,6.05
2022-10-08T09:16:33.238Z,4.78
2022-10-08T09:19:03.739Z,4.85
2022-10-08T09:21:36.839Z,5.28
2022-10-08T09:24:06.744Z,6.53
2022-10-08T09:26:37.275Z,6.20
2022-10-08T09:29:11.693Z,6.22
2022-10-08T09:31:41.962Z,7.18
2022-10-08T09:34:14.733Z,9.93
2022-10-08T09:36:45.196Z,4.00
2022-10-08T09:39:25.351Z,4.85
2022-10-08T09:42:10.865Z,4.15
2022-10-08T09:44:44.415Z,6.47
2022-10-08T09:47:23.352Z,6.05
2022-10-08T09:50:14.232Z,3.28
2022-10-08T09:52:44.404Z,5.90
2022-10-08T09:55:43.443Z,4.40
2022-10-08T09:58:13.949Z,6.82
2022-10-08T10:00:43.610Z,6.90
2022-10-08T10:03:20.923Z,10.52
2022-10-08T10:05:53.294Z,6.57
2022-10-08T10:08:41.520Z,9.43
2022-10-08T10:11:12.432Z,8.47
2022-10-08T10:13:42.175Z,6.85
2022-10-08T10:16:17.212Z,9.23
2022-10-08T10:18:57.488Z,8.60
2022-10-08T10:21:32.936Z,8.73
2022-10-08T10:24:09.165Z,11.93
2022-10-08T10:26:40.047Z,10.23
2022-10-08T10:29:11.703Z,5.38
2022-10-08T10:31:43.471Z,7.85
2022-10-08T10:34:13.487Z,8.70
2022-10-08T10:36:45.409Z,6.40
2022-10-08T10:39:15.052Z,6.90
2022-10-08T10:42:06.221Z,9.52
2022-10-08T10:44:51.813Z,7.43
2022-10-08T10:47:25.268Z,10.25
2022-10-08T10:49:57.432Z,11.63
2022-10-08T10:52:33.500Z,5.63
2022-10-08T10:55:03.479Z,5.45
2022-10-08T10:57:42.814Z,7.15
2022-10-08T11:00:24.856Z,10.23
2022-10-08T11:02:57.178Z,5.32
2022-10-08T11:05:28.385Z,6.15
2022-10-08T11:08:13.966Z,9.52
2022-10-08T11:10:48.088Z,9.73
2022-10-08T11:13:37.201Z,9.20
2022-10-08T11:18:39.992Z,7.45
2022-10-08T11:21:16.069Z,9.90
2022-10-08T11:24:07.268Z,18.33
2022-10-08T11:26:55.276Z,16.98
2022-10-08T11:29:25.323Z,20.65
2022-10-08T11:31:56.098Z,20.85
2022-10-08T11:34:41.881Z,20.52
2022-10-08T11:37:21.399Z,29.58
2022-10-08T11:39:57.354Z,28.75
2022-10-08T11:42:27.276Z,23.42
2022-10-08T11:44:57.172Z,28.38
2022-10-08T11:47:48.094Z,22.42
2022-10-08T11:50:38.760Z,18.95
2022-10-08T11:53:18.168Z,17.80
2022-10-08T11:55:55.011Z,18.13
2022-10-08T11:58:35.305Z,20.48
2022-10-08T12:01:07.523Z,18.48
2022-10-08T12:03:42.560Z,15.75
2022-10-08T12:06:26.445Z,15.88
2022-10-08T12:09:00.715Z,14.77
2022-10-08T12:11:37.864Z,16.50
2022-10-08T12:14:14.931Z,12.95
2022-10-08T12:16:51.699Z,17.42
2022-10-08T12:19:37.653Z,17.50
2022-10-08T12:22:20.703Z,15.75
2022-10-08T12:24:54.272Z,23.10
2022-10-08T12:27:25.863Z,19.17
2022-10-08T12:29:57.723Z,20.80
2022-10-08T12:32:30.130Z,20.40
2022-10-08T12:35:01.057Z,17.77
2022-10-08T12:37:31.968Z,17.85
2022-10-08T12:40:03.940Z,17.80
2022-10-08T12:42:34.988Z,20.23
2022-10-08T12:45:05.852Z,23.15
2022-10-08T12:47:59.931Z,21.48
2022-10-08T12:50:33.584Z,25.55
2022-10-08T12:53:05.451Z,23.42
2022-10-08T12:55:38.336Z,20.50
2022-10-08T12:58:09.409Z,22.52
2022-10-08T13:00:40.481Z,19.63
2022-10-08T13:03:22.423Z,17.90
2022-10-08T13:05:55.394Z,19.50
2022-10-08T13:08:42.106Z,18.33
2022-10-08T13:11:13.564Z,20.23
2022-10-08T13:13:45.093Z,14.95
2022-10-08T13:16:34.015Z,15.07
2022-10-08T13:19:04.927Z,12.27
2022-10-08T13:21:39.982Z,17.77
2022-10-08T13:24:13.852Z,12.20
2022-10-08T13:26:49.336Z,21.00
2022-10-08T13:29:29.365Z,17.08
2022-10-08T13:32:05.057Z,23.13
2022-10-08T13:34:55.082Z,13.48
2022-10-08T13:37:26.242Z,18.67
2022-10-08T13:39:57.494Z,17.75
2022-10-08T13:42:29.262Z,16.40
2022-10-08T13:45:02.206Z,14.43
2022-10-08T13:47:33.130Z,13.23
2022-10-08T13:50:04.568Z,15.10
2022-10-08T13:52:35.937Z,13.20
2022-10-08T13:55:10.863Z,14.63
2022-10-08T13:57:41.766Z,9.88
2022-10-08T14:00:17.004Z,14.32
2022-10-08T14:02:47.983Z,9.48
2022-10-08T14:05:19.021Z,9.73
2022-10-08T14:07:50.279Z,8.60
2022-10-08T14:10:21.290Z,12.23
2022-10-08T14:12:51.483Z,8.88
2022-10-08T14:15:22.105Z,10.10
2022-10-08T14:17:58.021Z,9.98
2022-10-08T14:20:28.621Z,9.90
2022-10-08T14:23:05.335Z,10.32
2022-10-08T14:25:36.844Z,10.48
2022-10-08T14:28:10.034Z,8.77
2022-10-08T14:30:46.132Z,9.50
2022-10-08T14:33:19.810Z,10.95
2022-10-08T14:35:56.440Z,10.35
2022-10-08T14:38:30.992Z,10.20
2022-10-08T14:41:02.126Z,14.15
2022-10-08T14:43:36.463Z,14.27
2022-10-08T14:46:10.996Z,10.18
2022-10-08T14:48:41.357Z,20.80
2022-10-08T14:51:11.522Z,18.48
2022-10-08T14:53:43.130Z,13.32
2022-10-08T14:56:15.851Z,19.17
2022-10-08T14:58:45.869Z,21.02
2022-10-08T15:01:17.128Z,14.45
2022-10-08T15:06:30.461Z,18.25
2022-10-08T15:09:00.885Z,19.42
2022-10-08T15:11:30.819Z,18.00
2022-10-08T15:14:09.714Z,11.93
2022-10-08T15:16:41.147Z,18.63
2022-10-08T15:19:24.013Z,15.95
2022-10-08T15:21:54.249Z,11.20
2022-10-08T15:24:28.804Z,12.05
2022-10-08T15:26:59.770Z,11.57
2022-10-08T15:29:31.019Z,10.82
2022-10-08T15:32:04.358Z,9.95
2022-10-08T15:34:39.906Z,11.82
2022-10-08T15:37:10.851Z,12.07
2022-10-08T15:39:42.696Z,12.27
2022-10-08T15:42:15.090Z,13.00
2022-10-08T15:44:49.025Z,15.48
2022-10-08T15:47:28.404Z,9.57
2022-10-08T15:49:58.438Z,13.27
2022-10-08T15:52:28.393Z,13.02
2022-10-08T15:54:59.235Z,12.45
2022-10-08T15:57:35.889Z,13.30
2022-10-08T16:00:17.300Z,12.73
2022-10-08T16:02:54.098Z,14.07
2022-10-08T16:05:26.624Z,13.23
2022-10-08T16:07:59.840Z,19.38
2022-10-08T16:10:30.471Z,13.95
2022-10-08T16:13:04.367Z,15.65
2022-10-08T16:15:40.041Z,16.40
2022-10-08T16:18:13.396Z,13.60
2022-10-08T16:20:50.595Z,12.55
2022-10-08T16:25:56.417Z,13.75
2022-10-08T16:28:31.226Z,12.45
2022-10-08T16:31:01.345Z,13.82
2022-10-08T16:33:31.687Z,18.77
2022-10-08T16:36:04.485Z,9.27
2022-10-08T16:38:35.188Z,12.27
2022-10-08T16:41:18.531Z,9.50
2022-10-08T16:43:50.625Z,10.52
2022-10-08T16:46:27.232Z,10.20
2022-10-08T16:49:10.438Z,11.27
2022-10-08T16:51:40.369Z,21.35
2022-10-08T16:54:11.176Z,16.98
2022-10-08T16:56:41.232Z,19.90
2022-10-08T16:59:18.817Z,17.95
2022-10-08T17:01:49.272Z,16.33
2022-10-08T17:04:19.155Z,18.30
2022-10-08T17:06:49.247Z,20.25
2022-10-08T17:09:19.106Z,13.50
2022-10-08T17:11:48.860Z,12.20
2022-10-08T17:14:18.687Z,14.55
2022-10-08T17:16:48.614Z,9.27
2022-10-08T17:19:18.576Z,13.23
2022-10-08T17:21:48.339Z,13.65
2022-10-08T17:24:18.200Z,7.88
2022-10-08T17:26:48.131Z,8.32
2022-10-08T17:29:18.065Z,15.85
2022-10-08T17:31:48.713Z,13.05
2022-10-08T17:34:18.540Z,10.35
2022-10-08T17:36:49.266Z,5.93
2022-10-08T17:39:19.022Z,9.70
2022-10-08T17:41:49.019Z,10.18
2022-10-08T17:44:18.697Z,11.55
2022-10-08T17:46:49.215Z,12.10
2022-10-08T17:49:22.523Z,9.60
2022-10-08T17:51:52.554Z,10.18
2022-10-08T17:54:22.679Z,9.00
2022-10-08T17:56:52.631Z,17.85
2022-10-08T17:59:24.255Z,16.63
2022-10-08T18:01:54.567Z,13.20
2022-10-08T18:04:24.472Z,12.25
2022-10-08T18:06:54.346Z,11.90
2022-10-08T18:09:24.522Z,9.95
2022-10-08T18:11:55.064Z,10.70
2022-10-08T18:14:25.125Z,10.57
2022-10-08T18:16:54.867Z,12.82
2022-10-08T18:19:24.625Z,14.50
2022-10-08T18:21:54.587Z,16.60
2022-10-08T18:24:24.283Z,14.25
2022-10-08T18:26:54.063Z,15.95
2022-10-08T18:29:23.802Z,7.50
2022-10-08T18:31:55.521Z,8.32
2022-10-08T18:34:27.227Z,9.15
2022-10-08T18:36:57.088Z,11.65
2022-10-08T18:39:28.714Z,11.80
2022-10-08T18:41:58.647Z,13.25
2022-10-08T18:44:28.473Z,9.90
2022-10-08T18:47:01.801Z,8.60
2022-10-08T18:49:35.110Z,13.73
2022-10-08T18:52:04.914Z,10.13
2022-10-08T18:54:34.583Z,11.60
2022-10-08T18:57:04.324Z,10.35
2022-10-08T18:59:33.987Z,10.40
2022-10-08T19:02:03.892Z,13.10
2022-10-08T19:04:33.992Z,12.57
2022-10-08T19:07:04.064Z,17.52
2022-10-08T19:09:34.494Z,7.70
2022-10-08T19:12:04.146Z,17.48
2022-10-08T19:14:34.169Z,18.33
2022-10-08T19:17:04.445Z,13.35
2022-10-08T19:19:34.364Z,11.82
2022-10-08T19:22:04.276Z,12.60
2022-10-08T19:24:37.340Z,12.32
2022-10-08T19:27:09.845Z,15.75
2022-10-08T19:29:40.783Z,10.00
2022-10-08T19:32:11.527Z,16.52
2022-10-08T19:34:41.462Z,17.27
2022-10-08T19:37:11.816Z,13.70
2022-10-08T19:39:43.991Z,14.27
2022-10-08T19:42:13.972Z,17.83
2022-10-08T19:44:43.873Z,10.43
2022-10-08T19:47:13.763Z,9.43
2022-10-08T19:49:43.556Z,9.45
2022-10-08T19:52:13.295Z,11.18
2022-10-08T19:54:43.144Z,19.20
2022-10-08T19:57:13.079Z,19.67
2022-10-08T19:59:42.863Z,14.93
2022-10-08T20:02:13.055Z,17.70
2022-10-08T20:04:43.770Z,15.70
2022-10-08T20:07:13.703Z,14.93
2022-10-08T20:09:43.468Z,13.63
2022-10-08T20:12:13.143Z,18.10
2022-10-08T20:14:43.136Z,21.95
2022-10-08T20:17:12.990Z,20.63
2022-10-08T20:19:43.060Z,19.38
2022-10-08T20:22:12.683Z,21.65
2022-10-08T20:24:42.609Z,16.38
2022-10-08T20:27:12.434Z,17.08
2022-10-08T20:29:45.454Z,18.15
2022-10-08T20:32:15.689Z,17.80
2022-10-08T20:34:45.618Z,16.50
2022-10-08T20:37:17.574Z,16.38
2022-10-08T20:39:48.106Z,19.15
2022-10-08T20:42:17.839Z,14.85
2022-10-08T20:44:47.731Z,30.55
2022-10-08T20:47:17.934Z,11.75
2022-10-08T20:49:47.734Z,12.30
2022-10-08T20:52:17.526Z,12.30
2022-10-08T20:54:47.550Z,11.80
2022-10-08T20:57:17.523Z,10.25
2022-10-08T20:59:47.416Z,11.52
2022-10-08T21:02:19.741Z,13.45
2022-10-08T21:04:50.120Z,9.98
2022-10-08T21:07:20.044Z,10.15
2022-10-08T21:09:53.850Z,10.63
2022-10-08T21:12:23.734Z,7.45
2022-10-08T21:14:53.627Z,10.07
2022-10-08T21:17:23.340Z,9.77
2022-10-08T21:19:53.042Z,7.07
2022-10-08T21:22:22.792Z,7.68
2022-10-08T21:24:52.478Z,9.32
2022-10-08T21:27:22.467Z,18.42
2022-10-08T21:29:52.783Z,15.38
2022-10-08T21:32:22.911Z,14.23
2022-10-08T21:34:53.133Z,12.95
2022-10-08T21:37:22.989Z,8.27
2022-10-08T21:39:53.856Z,9.38
2022-10-08T21:42:23.666Z,12.00
2022-10-08T21:44:53.604Z,8.68
2022-10-08T21:47:23.629Z,17.75
2022-10-08T21:49:53.549Z,7.53
2022-10-08T21:52:23.291Z,7.28
2022-10-08T21:54:54.258Z,12.40
2022-10-08T21:57:23.900Z,12.27
2022-10-08T21:59:53.759Z,14.90
2022-10-08T22:02:23.697Z,13.43
2022-10-08T22:04:53.529Z,9.32
2022-10-08T22:07:23.313Z,11.90
2022-10-08T22:09:53.024Z,11.70
2022-10-08T22:12:22.886Z,8.13
2022-10-08T22:14:52.788Z,9.43
2022-10-08T22:17:22.536Z,12.13
2022-10-08T22:19:52.502Z,12.27
2022-10-08T22:22:22.316Z,16.27
2022-10-08T22:24:52.152Z,9.48
2022-10-08T22:27:22.059Z,7.35
2022-10-08T22:29:51.843Z,10.75
2022-10-08T22:32:22.666Z,13.32
2022-10-08T22:34:52.391Z,13.45
2022-10-08T22:37:22.257Z,10.35
2022-10-08T22:39:52.158Z,6.70
2022-10-08T22:42:21.845Z,9.00
2022-10-08T22:44:51.914Z,9.18
2022-10-08T22:47:21.855Z,10.82
2022-10-08T22:49:51.667Z,8.32
2022-10-08T22:52:21.380Z,7.57
2022-10-08T22:54:51.675Z,10.07
2022-10-08T22:57:21.791Z,10.27
2022-10-08T22:59:51.687Z,22.88
2022-10-08T23:02:21.559Z,11.98
2022-10-08T23:04:51.564Z,9.40
2022-10-08T23:07:21.523Z,9.90
2022-10-08T23:09:51.176Z,12.20
2022-10-08T23:12:21.117Z,10.95
2022-10-08T23:14:50.991Z,15.80
2022-10-08T23:17:20.997Z,12.15
2022-10-08T23:19:51.172Z,10.18
2022-10-08T23:22:21.062Z,11.82
2022-10-08T23:24:51.041Z,12.30
2022-10-08T23:27:20.731Z,12.75
2022-10-08T23:29:50.513Z,11.48
2022-10-08T23:32:20.229Z,18.63
2022-10-08T23:34:50.642Z,17.50
2022-10-08T23:37:20.332Z,16.40
2022-10-08T23:39:53.263Z,24.33
2022-10-08T23:42:26.775Z,22.88
2022-10-08T23:44:56.604Z,20.45
2022-10-08T23:47:26.549Z,24.58
2022-10-08T23:49:56.509Z,15.57
2022-10-08T23:52:26.508Z,19.08
2022-10-08T23:54:56.200Z,18.90
2022-10-08T23:57:25.834Z,12.20
2022-10-08T23:59:55.885Z,14.40
